This is the latest recevied weather packets stored in our database for station/object N7BTW-13. If no packets are shown the sender has not sent any weather packets the latest 1 day(s).
| Time | Temp. | Humidity | Pressure | Rain* | Wind** | Luminosity | Snow |
|---|---|---|---|---|---|---|---|
| 1778044810 | 14.44° C | 90% | 1017.3 hPa | 0 mm | - | - | - |
| 1778043010 | 13.89° C | 91% | 1017.1 hPa | 0 mm | - | - | - |
| 1778040012 | 13.89° C | 86% | 1016.6 hPa | 0 mm | - | - | - |
| 1778038807 | 15° C | 83% | 1016.3 hPa | 0 mm | - | - | - |
| 1778037608 | 16.11° C | 79% | 1016.1 hPa | 0 mm | - | - | - |
| 1778036407 | 17.22° C | 76% | 1016.1 hPa | 0 mm | - | - | - |
| 1778034009 | 18.89° C | 72% | 1015.8 hPa | 0 mm | - | - | - |
| 1778033412 | 18.33° C | 73% | 1015.8 hPa | 0 mm | - | - | - |
| 1778032810 | 20° C | 68% | 1015.8 hPa | 0 mm | - | - | - |
| 1778032207 | 19.44° C | 70% | 1015.7 hPa | 0 mm | - | - | - |
| 1778031608 | 20° C | 69% | 1015.7 hPa | 0 mm | - | - | - |
| 1778031007 | 20.56° C | 68% | 1015.8 hPa | 0 mm | - | - | - |
| 1778030408 | 20.56° C | 67% | 1015.8 hPa | 0 mm | - | - | - |
| 1778022009 | 19.44° C | 72% | 1016.6 hPa | 0 mm | - | - | - |
| 1778020810 | 18.33° C | 75% | 1016.7 hPa | 0 mm | - | - | - |
| 1778020207 | 18.33° C | 76% | 1016.8 hPa | 0 mm | - | - | - |
| 1778017807 | 18.33° C | 76% | 1016.9 hPa | 0 mm | - | - | - |
| 1778016609 | 17.22° C | 79% | 1017.1 hPa | 0 mm | - | - | - |
| 1778014808 | 16.67° C | 81% | 1017.2 hPa | 0 mm | - | - | - |
| 1778014210 | 16.67° C | 82% | 1017.3 hPa | 0 mm | - | - | - |
| 1778011808 | 16.67° C | 82% | 1017.4 hPa | 0 mm | - | - | - |
* Rain latest hour (hover to see other rain measurements)
** Current wind speed in m/s (hover to see current wind gust speed)